North Hudson, Wisconsin
Current Conditions -  °F | °C
As of 5:51 PM on Monday 20 Oct 2014 (Local Time) from K21D Reporting Station
Clear Clear  
Wind Chill: 13°   Ceiling: Unl
Heat Index: 13°   Visibility: 10mi
Dew Point:   Wind: 7mph
Humidity: 58%   Direction: 340°NNW
Pressure: 30.02"   Gusts: NA
Location:  44.9743°N, 92.6899°W
Report Text: K21D 202251Z AUTO 34006KT 10SM CLR 13/05 A3002 RMK AO2
Loading
Personal Weather Stations






























Interactive Weather Map
Tropical Storm Tracking
New forecast layout! Learn more

10-Day Weather Forecast

Advertisements
Track Severe Weather on mobile